Thunder radar more information blitzortung!


Radar de pluja more information rain snow radar


Visita la nostra xarxa de llocs de meteo:

Template documentation
and downloads

And another site



No particular awareness of the weather is required.    There are no Weather-warnings

Pagina Historial Weather Underground text

Diari Resum Juliol 7, 2017 Unitats:  Imperial    Mètric   Tant
« Previous Dia
SegĂźent Dia »
Diari Setmana Mensual Anual Personalitzada
  Maxima: Minima: Media:
Temperatura: 91.9 °F 68.7 °F 84.6 °F
Punt de rosada: 63.7 °F 48.7 °F 54.5 °F
Humitat: 69 % 26 % 38 %
Wind Speed: 12.7 mph 0 mph 5.3 mph
RĂ fegues de vent: 12.7 mph - -
Vent:- - East
Pression baro: 30.1 in 29.9 in -
Precipitacions: 0 in    
Historical Graphs
 
 
Dades de taula per Juliol 7, 2017
Temps Temperatura Punt de rosada Pression baro Vent Wind Speed RĂ fegues de vent Humitat Rainfall Rate (Hourly)
00:04 75.7 °F 63.7 °F 30 in NNE 3.1 mph 3.1 mph 66 % 0 in
00:05 70.5 °F 59.9 °F 30 in NE 1 mph 3 mph 69 % 0 in
00:15 70.2 °F 59.5 °F 30 in Calm     69 % 0 in
00:25 70.2 °F 59.5 °F 30 in Calm     69 % 0 in
00:35 70 °F 59.4 °F 30 in Calm     69 % 0 in
00:45 69.8 °F 58.8 °F 30 in Calm   2 mph 68 % 0 in
00:55 70 °F 58.5 °F 30 in Calm   1 mph 67 % 0 in
01:05 69.8 °F 58.3 °F 30 in Calm   1 mph 67 % 0 in
01:15 69.4 °F 58.5 °F 30 in WNW 1 mph 1 mph 68 % 0 in
01:25 69.1 °F 58.1 °F 30 in West 1 mph 2 mph 68 % 0 in
01:35 68.9 °F 57.9 °F 30 in Calm   1 mph 68 % 0 in
01:45 68.9 °F 57.9 °F 30.1 in Calm     68 % 0 in
01:55 68.7 °F 57.7 °F 30.1 in West 2 mph 2 mph 68 % 0 in
02:05 68.7 °F 57.7 °F 30.1 in Calm   2 mph 68 % 0 in
02:15 69.4 °F 58.8 °F 30 in WSW 1 mph 2 mph 69 % 0 in
02:25 70.2 °F 59.2 °F 30 in NE 1 mph 2 mph 68 % 0 in
02:35 70.5 °F 59 °F 30.1 in NE 1 mph 2 mph 67 % 0 in
02:45 71.4 °F 59.5 °F 30.1 in NE 1 mph 3 mph 66 % 0 in
02:55 72 °F 59.5 °F 30.1 in NE 1 mph 1 mph 65 % 0 in
03:05 73.4 °F 60.1 °F 30.1 in ESE 3 mph 3 mph 63 % 0 in
03:15 73.4 °F 59.2 °F 30 in East 3 mph 3 mph 61 % 0 in
03:25 73.2 °F 59 °F 30 in NE 3 mph 3 mph 61 % 0 in
03:35 73.2 °F 58.5 °F 30 in NNE 5 mph 5 mph 60 % 0 in
03:45 73.2 °F 57.9 °F 30 in NNE 3 mph 5 mph 59 % 0 in
03:55 73.4 °F 58.3 °F 30 in NE 2 mph 3 mph 59 % 0 in
04:05 74.8 °F 59.2 °F 30.1 in NNE 3 mph 4 mph 58 % 0 in
04:15 75.6 °F 58.8 °F 30 in NNE 3 mph 4 mph 56 % 0 in
04:25 77 °F 59.2 °F 30 in ENE 1 mph 4 mph 54 % 0 in
04:35 78.3 °F 59.7 °F 30 in East 1 mph 3 mph 53 % 0 in
04:45 79.5 °F 60.4 °F 30 in ENE 2 mph 4 mph 52 % 0 in
04:55 80.4 °F 60.6 °F 30 in East 3 mph 4 mph 51 % 0 in
05:05 81.3 °F 59.7 °F 30.1 in ESE 3 mph 4 mph 48 % 0 in
05:15 81.1 °F 59.5 °F 30 in East 3 mph 4 mph 48 % 0 in
05:25 81.9 °F 59.2 °F 30 in ENE 2 mph 4 mph 46 % 0 in
05:35 82.9 °F 59.4 °F 30 in ENE 2 mph 3 mph 45 % 0 in
10:36 82.8 °F 59.9 °F 30 in NNE 3.5 mph 3.5 mph 46 % 0 in
10:41 83.8 °F 60.3 °F 30 in NE 3.5 mph 3.5 mph 45 % 0 in
10:46 83.8 °F 60.3 °F 30 in East 3.5 mph 3.5 mph 45 % 0 in
10:51 84.6 °F 60.3 °F 30 in ENE 2.3 mph 2.3 mph 44 % 0 in
10:56 84.9 °F 60.6 °F 30 in NE 3.5 mph 3.5 mph 44 % 0 in
11:01 85.8 °F 60.6 °F 30 in ENE 2.3 mph 2.3 mph 43 % 0 in
11:02 85.8 °F 60.6 °F 30 in ENE 2.3 mph 2.3 mph 43 % 0 in
11:07 86.2 °F 59.7 °F 30 in SSE 5.8 mph 5.8 mph 41 % 0 in
11:12 86 °F 58.8 °F 30 in ENE 8.1 mph 8.1 mph 40 % 0 in
11:17 86.7 °F 59.5 °F 30 in East 6 mph 6 mph 40 % 0 in
11:22 86.9 °F 59.7 °F 30 in ENE 6 mph 6 mph 40 % 0 in
11:27 86.9 °F 59.7 °F 30 in ESE 5.8 mph 5.8 mph 40 % 0 in
11:32 88 °F 59.2 °F 30 in ENE 8.7 mph 8.7 mph 38 % 0 in
11:37 87.6 °F 58.1 °F 30 in ESE 9.2 mph 9.2 mph 37 % 0 in
11:42 87.8 °F 57.6 °F 30 in ESE 8.1 mph 8.1 mph 36 % 0 in
11:47 88.5 °F 58.8 °F 30 in SE 3.6 mph 3.8 mph 37 % 0 in
11:52 88.5 °F 58.3 °F 30 in East 5.9 mph 5.9 mph 36 % 0 in
11:57 89.1 °F 58.6 °F 30 in NE 5.8 mph 6 mph 36 % 0 in
12:02 89.2 °F 57.9 °F 30 in East 6.4 mph 6.4 mph 35 % 0 in
12:07 88.5 °F 56.7 °F 30 in ESE 6.9 mph 6.9 mph 34 % 0 in
12:12 88.5 °F 56.7 °F 30 in East 9.2 mph 9.2 mph 34 % 0 in
12:17 89.1 °F 55.4 °F 30 in ESE 8.1 mph 8.1 mph 32 % 0 in
12:22 89.1 °F 54.5 °F 30 in ESE 10 mph 10 mph 31 % 0 in
12:27 89.8 °F 55.9 °F 30 in East 6.9 mph 6.9 mph 32 % 0 in
12:32 90.3 °F 56.5 °F 30 in ESE 8.1 mph 8.1 mph 32 % 0 in
12:37 90.1 °F 56.3 °F 30 in East 8.1 mph 8.1 mph 32 % 0 in
12:42 90.7 °F 56.8 °F 30 in ESE 9 mph 9 mph 32 % 0 in
12:47 90.9 °F 56.8 °F 30 in ENE 9.2 mph 9.2 mph 32 % 0 in
12:52 90.9 °F 55.9 °F 30 in East 10.4 mph 10.4 mph 31 % 0 in
12:57 91 °F 55.2 °F 30 in ENE 12.7 mph 12.7 mph 30 % 0 in
13:02 91.2 °F 55.6 °F 30 in East 10.9 mph 10.9 mph 30 % 0 in
13:07 91 °F 56.1 °F 30 in ESE 9.2 mph 9.2 mph 31 % 0 in
13:12 90.9 °F 55.9 °F 30 in SE 8.1 mph 8.1 mph 31 % 0 in
13:17 90.1 °F 55.4 °F 30 in ESE 10 mph 10 mph 31 % 0 in
13:22 90.9 °F 55.9 °F 30 in SE 9.4 mph 9.4 mph 31 % 0 in
13:27 90.5 °F 54.9 °F 30 in NE 12.7 mph 12.7 mph 30 % 0 in
13:32 90.5 °F 54.9 °F 30 in East 10.4 mph 10.4 mph 30 % 0 in
13:37 90.7 °F 55.9 °F 30 in ESE 4.6 mph 4.7 mph 31 % 0 in
13:42 90.3 °F 54.7 °F 30 in SSE 11.5 mph 11.5 mph 30 % 0 in
13:47 90.5 °F 54 °F 30 in NE 9.2 mph 9.2 mph 29 % 0 in
13:52 90.7 °F 54.1 °F 30 in ESE 6.2 mph 6.2 mph 29 % 0 in
13:57 90.7 °F 54.1 °F 30 in ESE 10.4 mph 10.4 mph 29 % 0 in
14:02 91 °F 54.3 °F 30 in SE 6.9 mph 6.9 mph 29 % 0 in
14:07 90.9 °F 53.2 °F 30 in ENE 8.1 mph 8.1 mph 28 % 0 in
14:12 91.4 °F 53.8 °F 30 in ENE 9.2 mph 9.2 mph 28 % 0 in
14:17 91.8 °F 54 °F 30 in ENE 9.2 mph 9.2 mph 28 % 0 in
14:22 91.6 °F 54 °F 30 in East 7.4 mph 7.4 mph 28 % 0 in
14:27 91.8 °F 54 °F 30 in East 11.5 mph 11.5 mph 28 % 0 in
14:32 91 °F 53.4 °F 30 in East 8.1 mph 8.1 mph 28 % 0 in
14:37 90.9 °F 53.2 °F 30 in ESE 9.2 mph 9.2 mph 28 % 0 in
14:42 90.9 °F 54.1 °F 30 in SE 4.6 mph 4.6 mph 29 % 0 in
14:47 91.6 °F 54 °F 30 in ESE 3.1 mph 3.1 mph 28 % 0 in
14:52 90 °F 52.5 °F 30 in SSE 5.8 mph 5.8 mph 28 % 0 in
14:57 90.9 °F 54.1 °F 30 in ESE 6.9 mph 6.9 mph 29 % 0 in
15:02 91.4 °F 54.7 °F 30 in ESE 6 mph 6 mph 29 % 0 in
15:07 91.9 °F 55 °F 30 in SSE 6.9 mph 6.9 mph 29 % 0 in
15:12 91.2 °F 54.5 °F 30 in SE 9.2 mph 9.2 mph 29 % 0 in
15:17 91.2 °F 54.5 °F 30 in ESE 10.4 mph 10.4 mph 29 % 0 in
15:19 90.1 °F 53.6 °F 30 in SSE 8.1 mph 8.1 mph 29 % 0 in
15:24 90 °F 52.5 °F 30 in East 8.1 mph 8.1 mph 28 % 0 in
15:25 90 °F 52.5 °F 30 in SSE 5.8 mph 5.8 mph 28 % 0 in
15:30 90.1 °F 52.5 °F 30 in ESE 9.2 mph 9.2 mph 28 % 0 in
15:35 89.8 °F 52.3 °F 30 in NE 5.8 mph 5.8 mph 28 % 0 in
15:40 90 °F 53.4 °F 30 in ENE 5.8 mph 5.8 mph 29 % 0 in
15:45 89.4 °F 53.1 °F 30 in SSE 10.4 mph 10.4 mph 29 % 0 in
15:50 90.1 °F 53.6 °F 30 in South 3.5 mph 3.5 mph 29 % 0 in
15:55 90.3 °F 53.8 °F 30 in SE 4.6 mph 4.6 mph 29 % 0 in
16:00 90.5 °F 54 °F 30 in South 8.1 mph 8.1 mph 29 % 0 in
16:05 90.7 °F 54.1 °F 30 in South 9.2 mph 9.2 mph 29 % 0 in
16:10 91.2 °F 54.5 °F 30 in East 5.8 mph 5.8 mph 29 % 0 in
16:15 91.4 °F 53.8 °F 30 in SSE 10.4 mph 10.4 mph 28 % 0 in
16:20 90.7 °F 53.1 °F 30 in SSE 11.5 mph 11.5 mph 28 % 0 in
16:25 91 °F 53.4 °F 30 in ESE 9.2 mph 9.2 mph 28 % 0 in
16:30 90.1 °F 51.6 °F 30 in ESE 8.1 mph 8.1 mph 27 % 0 in
16:35 90.3 °F 51.8 °F 30 in SE 6.4 mph 6.4 mph 27 % 0 in
16:40 90.3 °F 50.7 °F 30 in ESE 12.7 mph 12.7 mph 26 % 0 in
16:45 90.3 °F 50.7 °F 30 in NE 6.9 mph 6.9 mph 26 % 0 in
16:50 89.8 °F 50.4 °F 30 in ESE 8.1 mph 8.1 mph 26 % 0 in
16:55 90 °F 50.5 °F 30 in South 5.8 mph 5.8 mph 26 % 0 in
17:00 90.7 °F 51.1 °F 30 in SSE 4.6 mph 4.6 mph 26 % 0 in
17:05 90.5 °F 50.9 °F 30 in SSE 6.9 mph 6.9 mph 26 % 0 in
17:10 90.5 °F 50.9 °F 30 in South 7.6 mph 7.6 mph 26 % 0 in
17:15 90.7 °F 51.1 °F 30 in SE 6.9 mph 6.9 mph 26 % 0 in
17:20 90.7 °F 51.1 °F 30 in ESE 4.6 mph 4.6 mph 26 % 0 in
17:25 89.6 °F 50.2 °F 30 in South 5.8 mph 5.8 mph 26 % 0 in
17:30 89.4 °F 51.1 °F 30 in South 3.5 mph 3.5 mph 27 % 0 in
17:35 89.2 °F 50.9 °F 30 in East 5.9 mph 5.9 mph 27 % 0 in
17:40 89.2 °F 50.9 °F 30 in SSE 5.8 mph 5.8 mph 27 % 0 in
17:45 89.2 °F 50.9 °F 30 in ESE 3.5 mph 3.5 mph 27 % 0 in
17:50 88.5 °F 50.4 °F 30 in ENE 5.8 mph 5.8 mph 27 % 0 in
17:55 88.3 °F 50.2 °F 30 in ESE 9.2 mph 9.2 mph 27 % 0 in
18:00 88.3 °F 51.1 °F 30 in ESE 5.8 mph 5.8 mph 28 % 0 in
18:05 88.5 °F 50.4 °F 30 in SSE 6 mph 6 mph 27 % 0 in
18:10 88.9 °F 50.5 °F 30 in ESE 2.3 mph 3.3 mph 27 % 0 in
18:15 88.5 °F 50.4 °F 30 in SE 6.9 mph 6.9 mph 27 % 0 in
18:20 88.9 °F 50.5 °F 30 in SSE 3.5 mph 3.5 mph 27 % 0 in
18:25 88.9 °F 51.6 °F 30 in South 4.6 mph 4.6 mph 28 % 0 in
18:30 88.5 °F 50.4 °F 30 in SSW 5.8 mph 5.8 mph 27 % 0 in
18:35 88.9 °F 50.5 °F 30 in SE 4.6 mph 4.6 mph 27 % 0 in
18:40 88.7 °F 50.4 °F 30 in SSE 3.5 mph 3.5 mph 27 % 0 in
18:45 88.5 °F 50.4 °F 30 in East 5.8 mph 5.8 mph 27 % 0 in
18:50 88.2 °F 50 °F 30 in ESE 5.8 mph 5.8 mph 27 % 0 in
18:55 88 °F 49.8 °F 30 in NE 3.5 mph 3.5 mph 27 % 0 in
19:00 88.2 °F 50 °F 30 in ENE 4.6 mph 4.6 mph 27 % 0 in
19:05 88 °F 48.7 °F 30 in East 5.8 mph 5.8 mph 26 % 0 in
19:10 87.6 °F 49.5 °F 30 in East 4.6 mph 4.6 mph 27 % 0 in
19:15 87.8 °F 49.6 °F 30 in ENE 3.5 mph 3.5 mph 27 % 0 in
19:20 87.6 °F 49.5 °F 30 in NE 5.8 mph 5.8 mph 27 % 0 in
19:25 87.3 °F 50.2 °F 30 in NNE 5.8 mph 5.8 mph 28 % 0 in
19:30 87.1 °F 50 °F 30 in East 4.6 mph 4.6 mph 28 % 0 in
19:35 87.3 °F 50.2 °F 30 in ESE 5.8 mph 5.8 mph 28 % 0 in
19:40 86.9 °F 49.8 °F 30 in East 6.9 mph 6.9 mph 28 % 0 in
19:45 86.7 °F 49.6 °F 30 in ESE 5.8 mph 5.8 mph 28 % 0 in
19:50 86.5 °F 49.6 °F 30 in ESE 5.8 mph 5.8 mph 28 % 0 in
19:55 86.4 °F 50.4 °F 30 in East 7.6 mph 7.6 mph 29 % 0 in
20:00 86.4 °F 50.4 °F 30 in ESE 4.6 mph 4.6 mph 29 % 0 in
20:05 86 °F 50 °F 30 in ESE 5.8 mph 5.8 mph 29 % 0 in
20:10 86 °F 50 °F 30 in ENE 4.6 mph 4.6 mph 29 % 0 in
20:15 85.6 °F 49.6 °F 30 in ESE 5.8 mph 5.8 mph 29 % 0 in
20:20 85.6 °F 49.6 °F 30 in ESE 6.9 mph 6.9 mph 29 % 0 in
20:25 85.5 °F 49.6 °F 30 in ESE 5.8 mph 5.8 mph 29 % 0 in
20:30 85.1 °F 49.3 °F 30 in ESE 5.8 mph 5.8 mph 29 % 0 in
20:35 84.9 °F 50 °F 30 in ESE 4 mph 4 mph 30 % 0 in
20:40 84.7 °F 49.8 °F 29.9 in SSE 3.6 mph 3.6 mph 30 % 0 in
20:45 84.6 °F 49.6 °F 29.9 in NE 2.3 mph 2.3 mph 30 % 0 in
20:50 84.2 °F 49.5 °F 29.9 in East 5.8 mph 5.8 mph 30 % 0 in
20:55 84 °F 49.3 °F 29.9 in ENE 2.3 mph 2.3 mph 30 % 0 in
21:00 84 °F 49.3 °F 29.9 in ESE 4.6 mph 4.6 mph 30 % 0 in
21:05 83.8 °F 50 °F 29.9 in East 2.4 mph 2.4 mph 31 % 0 in
21:10 83.7 °F 49.8 °F 29.9 in East 4.6 mph 4.6 mph 31 % 0 in
21:15 83.5 °F 49.6 °F 29.9 in ESE 5.8 mph 5.8 mph 31 % 0 in
21:20 83.3 °F 49.5 °F 29.9 in East 3.5 mph 3.5 mph 31 % 0 in
21:25 83.1 °F 50.2 °F 29.9 in NE 3.5 mph 3.5 mph 32 % 0 in
21:30 82.8 °F 50.7 °F 29.9 in East 3.6 mph 3.6 mph 33 % 0 in
21:35 82.4 °F 51.3 °F 29.9 in ENE 4.6 mph 4.6 mph 34 % 0 in
21:40 82.2 °F 51.8 °F 29.9 in ENE 4.6 mph 4.6 mph 35 % 0 in
21:45 81.9 °F 52.3 °F 29.9 in ESE 3.5 mph 3.5 mph 36 % 0 in
21:50 81.3 °F 53.2 °F 29.9 in ENE 4.6 mph 4.6 mph 38 % 0 in
21:55 81 °F 53.8 °F 29.9 in ENE 4.6 mph 4.6 mph 39 % 0 in
22:00 80.8 °F 54.9 °F 29.9 in East 3.6 mph 3.6 mph 41 % 0 in
22:05 80.6 °F 55.4 °F 29.9 in ENE 3.5 mph 3.5 mph 42 % 0 in
22:10 80.2 °F 57 °F 29.9 in NE 3.5 mph 3.5 mph 45 % 0 in
22:15 79.9 °F 56.7 °F 29.9 in North 2.3 mph 2.3 mph 45 % 0 in
22:20 79.7 °F 56.5 °F 29.9 in NE 3.5 mph 3.5 mph 45 % 0 in
22:25 79.5 °F 56.8 °F 29.9 in NNE 3.5 mph 3.5 mph 46 % 0 in
22:30 79.2 °F 56.7 °F 29.9 in ENE 3.5 mph 3.5 mph 46 % 0 in
22:35 79.2 °F 57.2 °F 29.9 in NNE 3.5 mph 3.5 mph 47 % 0 in
22:40 79 °F 57 °F 29.9 in NNE 5.8 mph 5.8 mph 47 % 0 in
22:45 78.6 °F 57.4 °F 29.9 in NNE 5.8 mph 5.8 mph 48 % 0 in
22:50 78.4 °F 57 °F 29.9 in NNW 5.8 mph 5.8 mph 48 % 0 in
22:55 78.1 °F 56.8 °F 30 in NNE 5.8 mph 5.8 mph 48 % 0 in
23:00 78.1 °F 56.8 °F 30 in NE 3.5 mph 3.5 mph 48 % 0 in
23:05 77.9 °F 55.6 °F 30 in ENE 5.8 mph 5.8 mph 46 % 0 in
23:10 77.9 °F 54.9 °F 29.9 in NNE 6.2 mph 6.2 mph 45 % 0 in
23:15 77.9 °F 54.1 °F 29.9 in North 5.8 mph 5.8 mph 44 % 0 in
23:20 77.7 °F 53.4 °F 29.9 in ESE 4.6 mph 4.6 mph 43 % 0 in
23:25 77.9 °F 53.1 °F 29.9 in East 4.6 mph 4.6 mph 42 % 0 in
23:30 77.7 °F 52.9 °F 29.9 in ENE 5.8 mph 5.8 mph 42 % 0 in
23:35 77.7 °F 52.9 °F 29.9 in ESE 6.9 mph 6.9 mph 42 % 0 in
23:40 77.7 °F 52.9 °F 29.9 in East 5.8 mph 5.8 mph 42 % 0 in
23:45 77.5 °F 52.5 °F 29.9 in ENE 3.1 mph 3.1 mph 42 % 0 in
23:50 77.5 °F 52.5 °F 29.9 in ENE 2.3 mph 2.3 mph 42 % 0 in
23:55 77.5 °F 52.5 °F 29.9 in East 2.3 mph 2.3 mph 42 % 0 in
Meteo Sesrovires
Elogis d' Weather Underground - 3.5 mb

Guio original per  Jim McMurry - jmcmurry@mwt.net Adaptat per a la plantilla per  Wim van der Kuil - Leuven-Template.eu

Trobareu la nostra informacio del temps tambe a:

Weather Underground

AWEKAS